createdAt,value
2017-05-24T00:00:11.991Z,0
2017-05-24T00:01:22.383Z,0
2017-05-24T00:02:32.756Z,0
2017-05-24T00:03:42.784Z,0
2017-05-24T00:04:52.184Z,0
2017-05-24T00:06:02.535Z,0
2017-05-24T00:07:12.590Z,0
2017-05-24T00:08:22.960Z,0
2017-05-24T00:09:33.317Z,0
2017-05-24T00:10:43.661Z,0
2017-05-24T00:11:54.018Z,0
2017-05-24T00:13:04.053Z,0
2017-05-24T00:14:14.406Z,0
2017-05-24T00:15:24.764Z,0
2017-05-24T00:16:35.102Z,0
2017-05-24T00:17:45.444Z,0
2017-05-24T00:18:55.789Z,0
2017-05-24T00:20:06.142Z,0
2017-05-24T00:21:16.189Z,0
2017-05-24T00:22:26.246Z,0
2017-05-24T00:23:36.647Z,0
2017-05-24T00:24:46.988Z,0
2017-05-24T00:25:57.024Z,0
2017-05-24T00:27:07.366Z,0
2017-05-24T00:28:17.726Z,0
2017-05-24T00:29:28.125Z,0
2017-05-24T00:30:38.164Z,0
2017-05-24T00:31:48.199Z,0
2017-05-24T00:32:58.249Z,0
2017-05-24T00:34:08.612Z,0
2017-05-24T00:35:19.004Z,0
2017-05-24T00:36:29.350Z,0
2017-05-24T00:37:39.702Z,0
2017-05-24T00:38:50.066Z,0
2017-05-24T00:40:00.101Z,0
2017-05-24T00:41:10.505Z,0
2017-05-24T00:42:20.865Z,0
2017-05-24T00:43:31.203Z,0
2017-05-24T00:44:41.559Z,0
2017-05-24T00:45:51.920Z,0
2017-05-24T00:47:02.289Z,0
2017-05-24T00:48:12.874Z,0
2017-05-24T00:49:23.222Z,0
2017-05-24T00:50:33.562Z,0
2017-05-24T00:51:43.911Z,0
2017-05-24T00:52:54.247Z,0
2017-05-24T00:54:04.293Z,0
2017-05-24T00:55:14.650Z,0
2017-05-24T00:56:24.690Z,0
2017-05-24T00:57:34.421Z,0
2017-05-24T00:58:44.827Z,0
2017-05-24T00:59:55.203Z,0
2017-05-24T01:01:05.569Z,0
2017-05-24T01:02:15.606Z,0
2017-05-24T01:03:25.970Z,0
2017-05-24T01:04:35.760Z,0
2017-05-24T01:05:46.105Z,0
2017-05-24T01:06:56.443Z,0
2017-05-24T01:08:06.799Z,0
2017-05-24T01:09:16.850Z,0
2017-05-24T01:10:27.238Z,0
2017-05-24T01:11:37.580Z,0
2017-05-24T01:12:47.925Z,0
2017-05-24T01:13:57.659Z,0
2017-05-24T01:15:07.994Z,0
2017-05-24T01:16:18.390Z,0
2017-05-24T01:17:28.749Z,0
2017-05-24T01:18:38.800Z,0
2017-05-24T01:19:49.153Z,0
2017-05-24T01:20:59.497Z,0
2017-05-24T01:22:09.851Z,0
2017-05-24T01:23:20.203Z,0
2017-05-24T01:24:30.242Z,0
2017-05-24T01:25:40.291Z,0
2017-05-24T01:26:50.317Z,0
2017-05-24T01:28:00.355Z,0
2017-05-24T01:29:10.392Z,0
2017-05-24T01:30:20.429Z,0
2017-05-24T01:31:30.783Z,0
2017-05-24T01:32:41.137Z,0
2017-05-24T01:33:51.544Z,0
2017-05-24T01:35:01.880Z,0
2017-05-24T01:36:12.240Z,0
2017-05-24T01:37:22.650Z,0
2017-05-24T01:38:32.986Z,0
2017-05-24T01:39:43.034Z,0
2017-05-24T01:40:53.081Z,0
2017-05-24T01:42:03.449Z,0
2017-05-24T01:43:13.795Z,0
2017-05-24T01:44:24.159Z,0
2017-05-24T01:45:34.200Z,0
2017-05-24T01:46:44.549Z,0
2017-05-24T01:47:54.581Z,0
2017-05-24T01:49:04.318Z,0
2017-05-24T01:50:14.673Z,0
2017-05-24T01:51:24.725Z,0
2017-05-24T01:52:35.074Z,0
2017-05-24T01:53:45.407Z,0
2017-05-24T01:54:55.755Z,0
2017-05-24T01:56:06.102Z,0
2017-05-24T01:57:16.456Z,0
2017-05-24T01:58:26.795Z,0
2017-05-24T01:59:37.134Z,0
2017-05-24T02:00:47.247Z,0
2017-05-24T02:01:57.789Z,0
2017-05-24T02:03:08.147Z,0
2017-05-24T02:04:18.495Z,0
2017-05-24T02:05:28.841Z,0
2017-05-24T02:06:38.884Z,0
2017-05-24T02:07:49.223Z,0
2017-05-24T02:08:59.329Z,0
2017-05-24T02:10:09.704Z,0
2017-05-24T02:11:20.058Z,0
2017-05-24T02:12:30.406Z,0
2017-05-24T02:13:40.761Z,0
2017-05-24T02:14:50.857Z,0
2017-05-24T02:16:01.218Z,0
2017-05-24T02:17:11.584Z,0
2017-05-24T02:18:21.313Z,0
2017-05-24T02:19:31.393Z,0
2017-05-24T02:20:41.899Z,0
2017-05-24T02:21:52.257Z,0
2017-05-24T02:23:02.659Z,0
2017-05-24T02:24:12.994Z,0
2017-05-24T02:25:23.341Z,0
2017-05-24T02:26:33.742Z,0
2017-05-24T02:27:43.485Z,0
2017-05-24T02:28:53.524Z,0
2017-05-24T02:30:03.890Z,0
2017-05-24T02:31:14.250Z,0
2017-05-24T02:32:24.603Z,0
2017-05-24T02:33:34.934Z,0
2017-05-24T02:34:45.284Z,0
2017-05-24T02:35:55.317Z,0
2017-05-24T02:37:05.667Z,0
2017-05-24T02:38:16.086Z,0
2017-05-24T02:39:25.832Z,0
2017-05-24T02:40:35.869Z,0
2017-05-24T02:41:46.270Z,0
2017-05-24T02:42:56.607Z,0
2017-05-24T02:44:06.658Z,0
2017-05-24T02:45:17.012Z,0
2017-05-24T02:46:27.364Z,0
2017-05-24T02:47:37.711Z,0
2017-05-24T02:48:47.736Z,4
2017-05-24T02:49:57.819Z,4
2017-05-24T02:51:07.553Z,4
2017-05-24T02:52:17.906Z,0
2017-05-24T02:53:28.255Z,0
2017-05-24T02:54:38.607Z,4
2017-05-24T02:55:48.964Z,4
2017-05-24T02:56:59.318Z,4
2017-05-24T02:58:09.347Z,4
2017-05-24T02:59:19.702Z,4
2017-05-24T03:00:30.057Z,8
2017-05-24T03:01:40.412Z,8
2017-05-24T03:33:09.207Z,196
2017-05-24T03:34:19.545Z,188
2017-05-24T03:35:29.553Z,176
2017-05-24T03:36:39.590Z,164
2017-05-24T03:37:49.931Z,148
2017-05-24T03:39:00.278Z,144
2017-05-24T03:40:10.606Z,140
2017-05-24T03:41:20.652Z,144
2017-05-24T03:42:30.986Z,156
2017-05-24T03:43:41.324Z,172
2017-05-24T03:44:51.729Z,192
2017-05-24T03:46:02.143Z,212
2017-05-24T03:47:12.490Z,252
2017-05-24T03:48:22.837Z,324
2017-05-24T03:49:33.192Z,412
2017-05-24T03:50:43.535Z,504
2017-05-24T03:51:53.876Z,604
2017-05-24T03:53:04.286Z,684
2017-05-24T03:54:14.652Z,760
2017-05-24T03:55:24.994Z,820
2017-05-24T03:56:35.319Z,872
2017-05-24T03:57:45.657Z,912
2017-05-24T03:58:56.004Z,944
2017-05-24T04:00:06.044Z,964
2017-05-24T04:01:16.387Z,968
2017-05-24T04:02:26.748Z,964
2017-05-24T04:03:37.121Z,952
2017-05-24T04:04:47.151Z,932
2017-05-24T04:05:57.498Z,912
2017-05-24T04:07:07.858Z,892
2017-05-24T04:08:18.216Z,896
2017-05-24T04:09:28.570Z,928
2017-05-24T04:10:38.605Z,976
2017-05-24T04:11:48.959Z,1036
2017-05-24T04:12:59.319Z,1104
2017-05-24T04:14:09.603Z,1148
2017-05-24T04:15:19.943Z,1176
2017-05-24T04:16:30.289Z,1212
2017-05-24T04:17:40.320Z,1248
2017-05-24T04:18:50.369Z,1284
2017-05-24T04:20:00.771Z,1320
2017-05-24T04:21:11.107Z,1364
2017-05-24T04:22:21.459Z,1400
2017-05-24T04:23:31.489Z,1428
2017-05-24T04:24:41.844Z,1448
2017-05-24T04:25:52.244Z,1440
2017-05-24T04:27:02.604Z,1400
2017-05-24T04:28:12.637Z,1324
2017-05-24T04:29:22.365Z,1228
2017-05-24T04:30:32.775Z,1160
2017-05-24T04:31:42.553Z,1172
2017-05-24T04:32:52.590Z,1220
2017-05-24T04:34:02.636Z,1276
2017-05-24T04:35:12.979Z,1256
2017-05-24T04:36:23.325Z,1156
2017-05-24T04:37:33.726Z,1060
2017-05-24T04:38:43.767Z,1012
2017-05-24T04:39:53.813Z,988
2017-05-24T04:41:04.178Z,924
2017-05-24T04:42:14.549Z,832
2017-05-24T04:43:24.957Z,720
2017-05-24T04:44:34.686Z,604
2017-05-24T04:45:45.106Z,524
2017-05-24T04:46:55.460Z,504
2017-05-24T04:48:05.813Z,540
2017-05-24T04:49:15.540Z,596
2017-05-24T04:50:25.893Z,692
2017-05-24T04:51:36.243Z,812
2017-05-24T04:52:46.274Z,944
2017-05-24T04:53:56.612Z,1084
2017-05-24T04:55:06.944Z,1220
2017-05-24T04:56:16.671Z,1340
2017-05-24T04:57:27.062Z,1436
2017-05-24T04:58:37.417Z,1520
2017-05-24T04:59:47.765Z,1560
2017-05-24T05:00:57.792Z,1572
2017-05-24T05:02:08.154Z,1580
2017-05-24T05:03:18.524Z,1580
2017-05-24T05:04:28.879Z,1588
2017-05-24T05:05:39.254Z,1648
2017-05-24T05:06:49.589Z,1724
2017-05-24T05:07:59.653Z,1776
2017-05-24T05:09:09.997Z,1860
2017-05-24T05:10:20.392Z,1956
2017-05-24T05:11:30.422Z,2064
2017-05-24T05:12:40.767Z,2184
2017-05-24T05:13:50.868Z,2316
2017-05-24T05:15:00.584Z,2456
2017-05-24T05:16:10.690Z,2612
2017-05-24T05:17:21.049Z,2752
2017-05-24T05:18:31.377Z,2868
2017-05-24T05:19:41.419Z,2952
2017-05-24T05:20:51.462Z,3016
2017-05-24T05:22:01.858Z,3048
2017-05-24T05:23:11.911Z,3060
2017-05-24T05:24:22.262Z,3060
2017-05-24T05:25:32.612Z,3060
2017-05-24T05:26:43.017Z,3048
2017-05-24T05:27:53.358Z,3032
2017-05-24T05:29:03.393Z,3024
2017-05-24T05:30:13.732Z,3024
2017-05-24T05:31:24.112Z,3040
2017-05-24T05:32:34.489Z,3072
2017-05-24T05:33:44.531Z,3128
2017-05-24T05:34:54.879Z,3216
2017-05-24T05:36:05.244Z,3296
2017-05-24T05:37:15.606Z,3404
2017-05-24T05:38:25.340Z,3520
2017-05-24T05:39:35.740Z,3648
2017-05-24T05:40:46.089Z,3772
2017-05-24T05:41:56.443Z,3880
2017-05-24T05:43:06.170Z,3936
2017-05-24T05:44:16.575Z,3864
2017-05-24T05:45:26.605Z,3688
2017-05-24T05:46:36.959Z,3552
2017-05-24T05:47:47.293Z,3556
2017-05-24T05:48:57.383Z,3732
2017-05-24T05:50:07.735Z,4048
2017-05-24T05:51:18.087Z,4280
2017-05-24T05:52:28.435Z,4428
2017-05-24T05:53:38.498Z,4520
2017-05-24T05:54:48.857Z,4720
2017-05-24T05:55:58.903Z,4776
2017-05-24T05:57:09.256Z,4676
2017-05-24T05:58:19.617Z,4636
2017-05-24T05:59:29.970Z,4708
2017-05-24T06:00:40.008Z,4768
2017-05-24T06:01:50.366Z,4792
2017-05-24T06:03:00.762Z,4840
2017-05-24T06:04:11.107Z,4796
2017-05-24T06:05:21.165Z,4820
2017-05-24T06:06:31.520Z,4968
2017-05-24T06:07:41.880Z,5132
2017-05-24T06:08:52.306Z,5376
2017-05-24T06:10:06.894Z,5764
2017-05-24T06:11:23.552Z,6380
2017-05-24T06:12:39.743Z,6844
2017-05-24T06:13:52.920Z,6580
2017-05-24T06:15:03.319Z,6420
2017-05-24T06:16:13.915Z,6460
2017-05-24T06:17:24.259Z,6344
2017-05-24T06:18:34.300Z,6428
2017-05-24T06:19:44.397Z,7260
2017-05-24T06:20:54.756Z,7676
2017-05-24T06:22:05.184Z,8144
2017-05-24T06:23:15.573Z,7736
2017-05-24T06:24:25.636Z,9816
2017-05-24T06:25:36.080Z,10156
2017-05-24T06:26:46.494Z,13080
2017-05-24T06:27:56.907Z,14164
2017-05-24T06:29:07.502Z,14480
2017-05-24T06:30:17.889Z,10984
2017-05-24T06:31:27.986Z,13648
2017-05-24T06:32:38.395Z,10608
2017-05-24T06:33:48.695Z,14944
2017-05-24T06:34:59.343Z,12832
2017-05-24T06:36:09.395Z,10484
2017-05-24T06:37:19.144Z,9164
2017-05-24T06:38:29.248Z,9480
2017-05-24T06:39:39.644Z,6968
2017-05-24T06:40:49.704Z,6312
2017-05-24T06:42:00.081Z,5496
2017-05-24T06:43:10.471Z,4912
2017-05-24T06:44:20.847Z,4340
2017-05-24T06:45:31.215Z,3968
2017-05-24T06:46:41.579Z,3696
2017-05-24T06:47:51.667Z,3464
2017-05-24T06:49:02.098Z,3444
2017-05-24T06:50:12.460Z,3556
2017-05-24T06:51:22.875Z,3728
2017-05-24T06:52:33.248Z,3988
2017-05-24T06:53:43.660Z,4352
2017-05-24T06:54:54.096Z,4788
2017-05-24T06:56:03.854Z,5280
2017-05-24T06:57:14.230Z,5748
2017-05-24T06:58:24.637Z,6076
2017-05-24T06:59:35.024Z,6312
2017-05-24T07:00:45.394Z,6696
2017-05-24T07:01:55.759Z,7276
2017-05-24T07:03:05.929Z,8016
2017-05-24T07:04:16.313Z,8640
2017-05-24T07:05:26.694Z,8828
2017-05-24T07:06:37.093Z,8708
2017-05-24T07:07:47.476Z,8444
2017-05-24T07:08:57.859Z,8036
2017-05-24T07:10:08.226Z,7520
2017-05-24T07:11:18.827Z,6840
2017-05-24T07:12:29.186Z,5712
2017-05-24T07:13:39.568Z,5284
2017-05-24T07:14:50.055Z,5204
2017-05-24T07:16:00.411Z,5332
2017-05-24T07:17:10.800Z,5520
2017-05-24T07:18:21.205Z,5692
2017-05-24T07:19:31.587Z,5824
2017-05-24T07:20:41.950Z,6048
2017-05-24T07:21:51.994Z,6452
2017-05-24T07:23:02.039Z,6868
2017-05-24T07:24:12.148Z,7380
2017-05-24T07:25:22.507Z,7892
2017-05-24T07:26:32.861Z,8456
2017-05-24T07:27:42.917Z,9016
2017-05-24T07:28:53.268Z,9628
2017-05-24T07:30:03.687Z,9752
2017-05-24T07:31:14.056Z,9272
2017-05-24T07:32:24.110Z,9812
2017-05-24T07:33:34.485Z,10220
2017-05-24T07:34:44.863Z,10540
2017-05-24T07:35:54.970Z,10060
2017-05-24T07:37:05.339Z,9196
2017-05-24T07:38:15.722Z,8180
2017-05-24T07:39:26.095Z,7020
2017-05-24T07:40:36.151Z,6520
2017-05-24T07:41:46.200Z,6208
2017-05-24T07:42:56.566Z,6024
2017-05-24T07:44:06.906Z,6032
2017-05-24T07:45:17.283Z,6228
2017-05-24T07:46:27.647Z,6440
2017-05-24T07:47:38.101Z,6632
2017-05-24T07:48:48.484Z,6868
2017-05-24T07:49:58.858Z,7112
2017-05-24T07:51:09.232Z,7440
2017-05-24T07:52:19.578Z,7784
2017-05-24T07:53:30.002Z,8172
2017-05-24T07:54:40.038Z,8620
2017-05-24T07:55:50.424Z,8464
2017-05-24T07:57:00.797Z,8364
2017-05-24T07:58:10.846Z,8756
2017-05-24T07:59:21.408Z,9476
2017-05-24T08:00:31.773Z,10056
2017-05-24T08:01:42.136Z,10532
2017-05-24T08:02:52.535Z,10980
2017-05-24T08:04:02.903Z,11396
2017-05-24T08:05:12.682Z,11428
2017-05-24T08:06:23.043Z,11264
2017-05-24T08:07:33.416Z,10880
2017-05-24T08:08:43.782Z,10712
2017-05-24T08:09:54.174Z,11188
2017-05-24T08:11:04.580Z,10740
2017-05-24T08:12:14.939Z,10788
2017-05-24T08:13:24.987Z,9248
2017-05-24T08:14:35.352Z,8568
2017-05-24T08:15:45.782Z,8364
2017-05-24T08:16:56.159Z,8620
2017-05-24T08:18:05.896Z,9208
2017-05-24T08:19:16.273Z,9344
2017-05-24T08:20:26.851Z,9528
2017-05-24T08:21:37.225Z,10848
2017-05-24T08:22:47.324Z,9244
2017-05-24T08:23:57.705Z,9028
2017-05-24T08:25:08.080Z,8556
2017-05-24T08:26:18.439Z,8324
2017-05-24T08:27:28.493Z,8104
2017-05-24T08:28:38.538Z,8320
2017-05-24T08:29:48.924Z,8500
2017-05-24T08:30:59.293Z,8772
2017-05-24T08:32:09.650Z,10648
2017-05-24T08:33:19.728Z,8632
2017-05-24T08:34:30.145Z,8508
2017-05-24T08:35:40.541Z,8980
2017-05-24T08:36:50.855Z,11828
2017-05-24T08:38:01.229Z,12084
2017-05-24T08:39:11.636Z,11780
2017-05-24T08:40:22.031Z,11136
2017-05-24T08:41:32.392Z,11276
2017-05-24T08:42:42.754Z,10852
2017-05-24T08:43:53.122Z,11324
2017-05-24T08:45:03.495Z,11096
2017-05-24T08:46:13.880Z,10740
2017-05-24T08:47:24.255Z,9744
2017-05-24T08:48:34.624Z,10356
2017-05-24T08:49:44.690Z,10572
2017-05-24T08:50:54.737Z,10672
2017-05-24T08:52:05.087Z,9324
2017-05-24T08:53:15.152Z,10696
2017-05-24T08:54:25.520Z,10480
2017-05-24T08:55:35.887Z,10472
2017-05-24T08:56:45.653Z,10448
2017-05-24T08:57:56.098Z,10156
2017-05-24T08:59:06.148Z,9800
2017-05-24T09:00:15.880Z,9740
2017-05-24T09:01:26.265Z,9456
2017-05-24T09:02:36.009Z,10520
2017-05-24T09:03:46.447Z,10640
2017-05-24T09:04:56.805Z,10480
2017-05-24T09:06:07.190Z,10496
2017-05-24T09:07:17.587Z,10388
2017-05-24T09:08:27.981Z,10456
2017-05-24T09:09:38.393Z,10948
2017-05-24T09:10:48.132Z,11060
2017-05-24T09:11:58.484Z,11076
2017-05-24T09:13:08.865Z,10728
2017-05-24T09:14:18.946Z,10632
2017-05-24T09:15:29.361Z,9736
2017-05-24T09:16:39.727Z,9796
2017-05-24T09:17:50.098Z,10412
2017-05-24T09:19:00.475Z,11256
2017-05-24T09:20:10.841Z,11508
2017-05-24T09:21:21.257Z,10488
2017-05-24T09:22:31.826Z,10012
2017-05-24T09:23:42.201Z,10068
2017-05-24T09:24:52.608Z,9220
2017-05-24T09:26:02.993Z,10188
2017-05-24T09:27:13.045Z,11592
2017-05-24T09:28:23.395Z,11068
2017-05-24T09:29:33.947Z,10348
2017-05-24T09:30:44.325Z,9360
2017-05-24T09:31:54.663Z,9152
2017-05-24T09:33:05.072Z,9128
2017-05-24T09:34:15.125Z,9212
2017-05-24T09:35:25.479Z,9512
2017-05-24T09:36:35.853Z,9456
2017-05-24T09:37:45.909Z,8992
2017-05-24T09:38:56.271Z,8696
2017-05-24T09:40:06.339Z,8884
2017-05-24T09:41:16.384Z,9588
2017-05-24T09:42:26.742Z,10100
2017-05-24T09:43:37.079Z,10440
2017-05-24T09:44:47.488Z,10700
2017-05-24T09:45:57.532Z,12272
2017-05-24T09:47:07.897Z,13408
2017-05-24T09:48:17.948Z,12828
2017-05-24T09:49:28.395Z,11344
2017-05-24T09:50:38.811Z,11156
2017-05-24T09:51:49.187Z,10744
2017-05-24T09:52:59.548Z,10540
2017-05-24T09:54:09.911Z,9992
2017-05-24T09:55:20.293Z,9524
2017-05-24T09:56:30.710Z,10868
2017-05-24T09:57:41.086Z,9356
2017-05-24T09:58:51.446Z,8424
2017-05-24T10:00:01.487Z,8268
2017-05-24T10:01:11.853Z,8028
2017-05-24T10:02:36.851Z,10992
2017-05-24T10:03:46.891Z,11580
2017-05-24T10:04:56.642Z,11876
2017-05-24T10:06:06.688Z,13252
2017-05-24T10:07:16.741Z,12356
2017-05-24T10:08:26.789Z,12412
2017-05-24T10:09:37.213Z,11676
2017-05-24T10:10:47.621Z,11452
2017-05-24T10:11:57.387Z,9308
2017-05-24T10:13:07.752Z,7784
2017-05-24T10:14:17.822Z,6972
2017-05-24T10:15:28.182Z,6332
2017-05-24T10:16:37.976Z,5912
2017-05-24T10:17:48.352Z,5924
2017-05-24T10:18:58.414Z,5824
2017-05-24T10:20:08.471Z,5156
2017-05-24T10:21:18.521Z,4452
2017-05-24T10:22:28.994Z,3832
2017-05-24T10:23:39.361Z,3252
2017-05-24T10:24:49.712Z,2912
2017-05-24T10:26:00.089Z,2572
2017-05-24T10:27:10.147Z,1844
2017-05-24T10:28:20.598Z,1092
2017-05-24T10:29:30.998Z,828
2017-05-24T10:30:41.395Z,864
2017-05-24T10:31:51.458Z,1032
2017-05-24T10:33:01.850Z,1504
2017-05-24T10:34:12.255Z,2164
2017-05-24T10:35:22.633Z,2400
2017-05-24T10:36:32.718Z,2440
2017-05-24T10:37:43.091Z,2636
2017-05-24T10:38:53.469Z,2884
2017-05-24T10:40:03.897Z,3028
2017-05-24T10:41:14.289Z,3572
2017-05-24T10:42:24.662Z,4632
2017-05-24T10:43:35.041Z,5524
2017-05-24T10:44:45.120Z,5708
2017-05-24T10:45:55.580Z,5312
2017-05-24T10:47:05.797Z,5080
2017-05-24T10:48:15.811Z,5624
2017-05-24T10:49:25.992Z,6300
2017-05-24T10:50:36.517Z,6848
2017-05-24T10:51:46.945Z,7384
2017-05-24T10:52:57.329Z,8176
2017-05-24T10:54:07.707Z,9068
2017-05-24T10:55:17.754Z,9544
2017-05-24T10:56:28.106Z,9604
2017-05-24T10:57:38.807Z,9384
2017-05-24T10:58:49.183Z,9204
2017-05-24T10:59:59.806Z,9008
2017-05-24T11:01:09.551Z,9076
2017-05-24T11:02:19.909Z,9240
2017-05-24T11:03:30.007Z,9348
2017-05-24T11:04:40.060Z,9396
2017-05-24T11:05:50.446Z,9676
2017-05-24T11:07:00.816Z,9820
2017-05-24T11:08:11.215Z,9300
2017-05-24T11:09:21.310Z,8308
2017-05-24T11:10:31.357Z,7788
2017-05-24T11:11:41.411Z,7412
2017-05-24T11:12:51.771Z,7436
2017-05-24T11:14:02.156Z,8048
2017-05-24T11:15:12.613Z,8216
2017-05-24T11:16:22.986Z,8288
2017-05-24T11:17:33.403Z,7952
2017-05-24T11:18:43.459Z,7376
2017-05-24T11:19:54.091Z,7012
2017-05-24T11:21:04.163Z,8112
2017-05-24T11:22:14.224Z,8988
2017-05-24T11:23:24.600Z,9176
2017-05-24T11:24:34.695Z,8812
2017-05-24T11:25:45.117Z,8880
2017-05-24T11:26:55.514Z,9060
2017-05-24T11:28:05.892Z,9188
2017-05-24T11:29:16.261Z,9272
2017-05-24T11:30:26.612Z,8696
2017-05-24T11:31:36.983Z,7972
2017-05-24T11:32:47.394Z,7104
2017-05-24T11:33:57.777Z,5748
2017-05-24T11:35:08.147Z,4648
2017-05-24T11:36:18.215Z,4412
2017-05-24T11:37:28.594Z,4584
2017-05-24T11:38:38.682Z,4668
2017-05-24T11:39:48.725Z,4676
2017-05-24T11:40:59.072Z,4644
2017-05-24T11:42:09.419Z,5064
2017-05-24T11:43:19.782Z,5912
2017-05-24T11:44:29.838Z,6572
2017-05-24T11:45:40.208Z,6976
2017-05-24T11:46:49.945Z,7236
2017-05-24T11:48:00.320Z,7344
2017-05-24T11:49:10.673Z,7608
2017-05-24T11:50:21.088Z,7912
2017-05-24T11:51:31.458Z,8168
2017-05-24T11:52:41.830Z,7608
2017-05-24T11:53:52.208Z,6780
2017-05-24T11:55:02.674Z,6280
2017-05-24T11:56:12.734Z,6336
2017-05-24T11:57:23.118Z,6608
2017-05-24T11:58:33.486Z,7468
2017-05-24T11:59:43.530Z,8208
2017-05-24T12:00:53.918Z,8624
2017-05-24T12:02:04.342Z,8608
2017-05-24T12:03:14.703Z,8820
2017-05-24T12:04:25.072Z,9480
2017-05-24T12:05:35.432Z,9856
2017-05-24T12:06:45.797Z,9944
2017-05-24T12:07:55.988Z,10028
2017-05-24T12:09:06.354Z,9136
2017-05-24T12:10:16.737Z,9352
2017-05-24T12:11:26.780Z,9848
2017-05-24T12:12:37.146Z,9748
2017-05-24T12:13:47.245Z,9600
2017-05-24T12:14:57.299Z,9500
2017-05-24T12:16:07.033Z,9068
2017-05-24T12:17:17.097Z,8336
2017-05-24T12:18:27.178Z,8204
2017-05-24T12:19:37.597Z,8136
2017-05-24T12:20:47.662Z,8564
2017-05-24T12:21:58.026Z,8456
2017-05-24T12:23:08.461Z,9124
2017-05-24T12:24:18.817Z,10104
2017-05-24T12:25:29.241Z,11664
2017-05-24T12:26:39.601Z,11992
2017-05-24T12:27:49.363Z,13552
2017-05-24T12:28:59.425Z,13044
2017-05-24T12:30:09.780Z,12696
2017-05-24T12:31:19.874Z,12776
2017-05-24T12:32:30.247Z,12260
2017-05-24T12:33:40.603Z,12384
2017-05-24T12:34:50.977Z,12628
2017-05-24T12:36:01.326Z,9588
2017-05-24T12:37:11.180Z,12824
2017-05-24T12:38:21.553Z,12660
2017-05-24T12:39:31.943Z,12612
2017-05-24T12:40:42.367Z,10452
2017-05-24T12:41:52.445Z,11664
2017-05-24T12:43:02.911Z,11500
2017-05-24T12:44:13.276Z,9884
2017-05-24T12:45:23.329Z,9124
2017-05-24T12:46:33.687Z,8300
2017-05-24T12:47:43.758Z,8056
2017-05-24T12:48:54.165Z,9076
2017-05-24T12:50:04.558Z,8372
2017-05-24T12:51:14.910Z,7920
2017-05-24T12:52:25.269Z,8712
2017-05-24T12:53:35.631Z,10284
2017-05-24T12:54:46.049Z,8708
2017-05-24T12:55:56.405Z,8420
2017-05-24T12:57:06.780Z,7896
2017-05-24T12:58:16.834Z,9528
2017-05-24T12:59:26.884Z,8116
2017-05-24T13:00:36.970Z,7972
2017-05-24T13:01:46.701Z,9712
2017-05-24T13:02:56.771Z,9892
2017-05-24T13:04:06.815Z,9992
2017-05-24T13:05:17.223Z,10068
2017-05-24T13:06:27.641Z,10148
2017-05-24T13:07:38.000Z,9988
2017-05-24T13:08:48.050Z,9684
2017-05-24T13:09:58.428Z,9660
2017-05-24T13:11:08.797Z,9536
2017-05-24T13:12:19.215Z,8080
2017-05-24T13:13:29.271Z,8952
2017-05-24T13:14:39.327Z,8980
2017-05-24T13:15:49.382Z,9288
2017-05-24T13:16:59.748Z,9232
2017-05-24T13:18:10.179Z,9156
2017-05-24T13:19:20.541Z,9076
2017-05-24T13:20:30.901Z,8972
2017-05-24T13:21:41.264Z,8588
2017-05-24T13:22:51.621Z,9000
2017-05-24T13:24:02.042Z,7784
2017-05-24T13:25:12.420Z,5772
2017-05-24T13:26:22.802Z,9996
2017-05-24T13:27:33.160Z,9824
2017-05-24T13:28:43.248Z,10004
2017-05-24T13:29:53.671Z,8788
2017-05-24T13:31:04.031Z,11356
2017-05-24T13:32:14.393Z,8596
2017-05-24T13:33:24.137Z,6636
2017-05-24T13:34:34.513Z,7140
2017-05-24T13:35:44.916Z,5776
2017-05-24T13:36:55.287Z,5620
2017-05-24T13:38:05.658Z,5540
2017-05-24T13:39:16.061Z,5716
2017-05-24T13:40:26.432Z,6356
2017-05-24T13:41:36.543Z,6400
2017-05-24T13:42:46.601Z,8096
2017-05-24T13:43:56.969Z,5736
2017-05-24T13:45:07.022Z,5816
2017-05-24T13:46:17.397Z,5996
2017-05-24T13:47:27.795Z,6048
2017-05-24T13:48:37.857Z,6512
2017-05-24T13:49:48.241Z,7532
2017-05-24T13:50:58.633Z,9104
2017-05-24T13:52:09.005Z,8656
2017-05-24T13:53:19.415Z,8356
2017-05-24T13:54:29.795Z,7572
2017-05-24T13:55:39.872Z,8164
2017-05-24T13:56:49.632Z,8132
2017-05-24T13:58:00.013Z,8412
2017-05-24T13:59:10.433Z,8752
2017-05-24T14:00:20.793Z,8252
2017-05-24T14:01:31.155Z,9200
2017-05-24T14:02:41.525Z,9020
2017-05-24T14:03:51.597Z,8996
2017-05-24T14:05:02.023Z,8680
2017-05-24T14:06:12.077Z,8408
2017-05-24T14:07:22.450Z,4808
2017-05-24T14:08:32.799Z,6676
2017-05-24T14:09:43.184Z,7604
2017-05-24T14:10:53.605Z,4312
2017-05-24T14:12:03.664Z,7732
2017-05-24T14:13:14.034Z,7472
2017-05-24T14:14:24.410Z,7760
2017-05-24T14:15:34.451Z,7472
2017-05-24T14:16:44.827Z,7232
2017-05-24T14:17:55.200Z,7080
2017-05-24T14:19:05.577Z,7068
2017-05-24T14:20:15.945Z,5380
2017-05-24T14:21:26.372Z,3840
2017-05-24T14:22:36.824Z,4220
2017-05-24T14:23:46.912Z,7068
2017-05-24T14:24:57.292Z,4456
2017-05-24T14:26:07.684Z,6540
2017-05-24T14:27:17.745Z,4072
2017-05-24T14:28:28.174Z,6944
2017-05-24T14:29:38.528Z,7032
2017-05-24T14:30:48.917Z,7020
2017-05-24T14:31:58.685Z,7100
2017-05-24T14:33:09.098Z,5728
2017-05-24T14:34:19.535Z,7856
2017-05-24T14:35:29.894Z,7788
2017-05-24T14:36:39.948Z,6932
2017-05-24T14:37:49.992Z,7904
2017-05-24T14:39:00.367Z,7616
2017-05-24T14:40:10.774Z,7380
2017-05-24T14:41:21.172Z,7484
2017-05-24T14:42:31.566Z,7628
2017-05-24T14:43:41.926Z,7504
2017-05-24T14:44:52.275Z,5420
2017-05-24T14:46:02.679Z,6760
2017-05-24T14:47:13.245Z,6628
2017-05-24T14:48:23.623Z,6316
2017-05-24T14:49:34.002Z,5888
2017-05-24T14:50:44.391Z,6284
2017-05-24T14:51:54.134Z,6248
2017-05-24T14:53:04.506Z,3256
2017-05-24T14:54:14.870Z,3336
2017-05-24T14:55:25.260Z,3780
2017-05-24T14:56:35.624Z,4440
2017-05-24T14:57:45.717Z,6552
2017-05-24T14:58:55.460Z,6700
2017-05-24T15:00:05.816Z,4896
2017-05-24T15:01:16.191Z,4476
2017-05-24T15:02:26.570Z,3908
2017-05-24T15:03:36.678Z,4332
2017-05-24T15:04:47.073Z,4640
2017-05-24T15:05:57.711Z,6228
2017-05-24T15:07:08.074Z,7684
2017-05-24T15:08:17.800Z,7788
2017-05-24T15:09:27.852Z,7196
2017-05-24T15:10:38.210Z,5108
2017-05-24T15:11:48.584Z,6088
2017-05-24T15:12:58.954Z,5004
2017-05-24T15:14:09.382Z,4520
2017-05-24T15:15:19.499Z,4084
2017-05-24T15:16:29.874Z,3940
2017-05-24T15:17:40.241Z,4948
2017-05-24T15:18:50.632Z,5604
2017-05-24T15:20:01.014Z,5716
2017-05-24T15:21:11.385Z,4760
2017-05-24T15:22:21.757Z,4112
2017-05-24T15:23:32.122Z,4196
2017-05-24T15:24:42.484Z,5292
2017-05-24T15:25:52.852Z,5000
2017-05-24T15:27:03.278Z,4568
2017-05-24T15:28:13.643Z,3976
2017-05-24T15:29:24.022Z,4236
2017-05-24T15:30:33.773Z,4272
2017-05-24T15:31:43.824Z,4392
2017-05-24T15:32:54.275Z,4468
2017-05-24T15:34:04.650Z,4396
2017-05-24T15:35:15.033Z,6500
2017-05-24T15:36:25.416Z,6888
2017-05-24T15:37:35.786Z,5428
2017-05-24T15:38:45.897Z,5608
2017-05-24T15:39:56.265Z,5036
2017-05-24T15:41:06.330Z,4564
2017-05-24T15:42:16.713Z,3940
2017-05-24T15:43:27.092Z,3644
2017-05-24T15:44:37.506Z,3532
2017-05-24T15:45:47.880Z,3524
2017-05-24T15:46:58.235Z,3612
2017-05-24T15:48:08.657Z,3652
2017-05-24T15:49:19.008Z,3968
2017-05-24T15:50:29.422Z,4512
2017-05-24T15:51:39.804Z,4284
2017-05-24T15:52:49.860Z,4264
2017-05-24T15:54:00.235Z,4020
2017-05-24T15:55:10.670Z,3536
2017-05-24T15:56:20.828Z,3400
2017-05-24T15:57:30.911Z,3488
2017-05-24T15:58:41.263Z,3572
2017-05-24T15:59:51.655Z,3576
2017-05-24T16:01:02.016Z,3668
2017-05-24T16:02:12.110Z,3864
2017-05-24T16:03:22.489Z,3900
2017-05-24T16:04:32.860Z,3876
2017-05-24T16:05:42.918Z,4036
2017-05-24T16:06:53.017Z,4268
2017-05-24T16:08:03.412Z,4580
2017-05-24T16:09:13.789Z,4860
2017-05-24T16:10:24.157Z,4732
2017-05-24T16:11:34.237Z,4496
2017-05-24T16:12:44.303Z,4312
2017-05-24T16:13:54.665Z,4156
2017-05-24T16:15:04.732Z,4028
2017-05-24T16:16:15.089Z,4104
2017-05-24T16:17:24.850Z,3928
2017-05-24T16:18:35.216Z,3880
2017-05-24T16:19:45.326Z,3920
2017-05-24T16:20:55.706Z,3672
2017-05-24T16:22:06.102Z,3260